This is the latest recevied weather packets stored in our database for station/object N5PLO-10. If no packets are shown the sender has not sent any weather packets the latest 10 day(s).
| Time | Temp. | Humidity | Pressure | Rain* | Wind** | Luminosity | Snow |
|---|---|---|---|---|---|---|---|
| 1777652702 | 16.67° C | 99% | 1015.6 hPa | 0 mm | - | 17 W/m² | - |
| 1777652398 | 16.67° C | 99% | 1015.6 hPa | 0 mm | - | 15 W/m² | - |
| 1777652096 | 16.67° C | 99% | 1015.5 hPa | 0 mm | - | 15 W/m² | - |
| 1777651792 | 16.67° C | 99% | 1015.7 hPa | 0 mm | - | 14 W/m² | - |
| 1777651489 | 16.67° C | 99% | 1015.3 hPa | 0 mm | - | 19 W/m² | - |
| 1777651186 | 16.67° C | 99% | 1015.1 hPa | 0 mm | - | 17 W/m² | - |
| 1777650883 | 16.67° C | 99% | 1015.3 hPa | 0 mm | - | 25 W/m² | - |
| 1777650580 | 16.67° C | 99% | 1015.1 hPa | 0 mm | - | 31 W/m² | - |
| 1777650277 | 16.67° C | 99% | 1015.1 hPa | 0 mm | - | 28 W/m² | - |
| 1777649974 | 16.67° C | 99% | 1014.8 hPa | 0 mm | - | 44 W/m² | - |
| 1777649672 | 16.67° C | 99% | 1014.5 hPa | 0 mm | - | 65 W/m² | - |
| 1777649367 | 16.67° C | 99% | 1014.3 hPa | 0 mm | - | 55 W/m² | - |
| 1777649065 | 16.67° C | 99% | 1014.5 hPa | 0 mm | - | 52 W/m² | - |
| 1777648762 | 16.67° C | 99% | 1014.5 hPa | 0 mm | - | 79 W/m² | - |
| 1777648459 | 16.11° C | 99% | 1014.6 hPa | 1.78 mm | - | 57 W/m² | - |
| 1777648155 | 16.11° C | 99% | 1014.4 hPa | 1.78 mm | - | 80 W/m² | - |
| 1777647851 | 16.11° C | 99% | 1014.7 hPa | 0 mm | - | 75 W/m² | - |
| 1777647548 | 16.11° C | 99% | 1014.9 hPa | 0 mm | - | 65 W/m² | - |
| 1777647244 | 16.11° C | 99% | 1015.3 hPa | 0 mm | - | 38 W/m² | - |
| 1777646942 | 16.11° C | 99% | 1015.1 hPa | 0 mm | - | 39 W/m² | - |
| 1777646637 | 16.11° C | 99% | 1014.7 hPa | 0 mm | - | 46 W/m² | - |
| 1777646333 | 16.11° C | 99% | 1014.9 hPa | 0 mm | - | 30 W/m² | - |
| 1777646030 | 16.11° C | 99% | 1015.1 hPa | 0 mm | - | 32 W/m² | - |
| 1777645727 | 16.11° C | 99% | 1015.4 hPa | 0 mm | - | 33 W/m² | - |
| 1777645424 | 16.11° C | 99% | 1015.6 hPa | 0 mm | - | 24 W/m² | - |
* Rain latest hour (hover to see other rain measurements)
** Current wind speed in m/s (hover to see current wind gust speed)